메인 페이지
METAR-TAF:

METAR-TAF

공항 :

엘도라도 국제공항

보고타, 콜롬비아

위도: 04-43N, 경도: 074-09W, 고도: 2547m

현재 날씨관측

예보는 17분 전, 20:00시(UTC)에 발표되었습니다.
동남동10kt동북동풍과 남동풍을 오가는
온도 20°C
습도 46%
기압 1023 hPa
시정 10km 이상
고도 2300ft 상공 구름 보통, 타워링 적운.
시계 내 소나기

METAR: SKBO 182000Z 11010KT 070V140 9999 VCSH SCT023TCU 20/08 A3022 RMK TCU VCSH NE/SE

시각: 15:17 (20:17 UTC)

예보

예보는 3 시간 17분 전, 17:00시(UTC)에 발표되었습니다.
예보 대상 시간: 18일 18시부터 19일 18시까지 (UTC)
서북서10kt
시정 10km 이상
고도 1700ft 상공 구름 많음
확률 40% :
일시적
18일 20시부터 18일 24시까지 (UTC)
시정: 5000m
고도 1500ft 상공 구름 보통, 적란운.
고도 8000ft 상공 구름 많음
뇌우, 비
전환 중
19일 01시부터 19일 02시까지 (UTC)
여러 방향의 바람 3kt
확률 30% :
일시적
19일 10시부터 19일 13시까지 (UTC)
시정: 5000m
고도 1000ft 상공 구름 보통
곳곳에 안개

TAF: SKBO 181700Z 1818/1918 29010KT 9999 BKN017 PROB40 TEMPO 1820/1824 5000 TSRA SCT015CB BKN080 BECMG 1901/1902 VRB03KT PROB30 TEMPO 1910/1913 5000 BCFG SCT010 TX20/1818Z TN08/1911Z

4,000개 이상의 공항 관측 자료 및 예보 (METAR 및 TAF 보고).

지도상에서 검색 가능한 기상관측소가 노란 점과 빨간 점으로 표시되어 있습니다.

기상관측소 명을 보려면 표시 위로 마우스를 이동하세요.

날씨 관측과 예보를 보려면 클릭하세요.

지도 변경 : 확대하려면 엑스 표시가 있는 녹색 버튼, 축소하려면 빼기 표시가 있는 녹색 버튼, 다음 페이지의 지도를 보려면 녹색 화살표를 클릭하세요.


METAR-TAF: